Time;durP1;ratioP1;P1;durP2;ratioP2;P2;SDS_P1;SDS_P2;PMS_P1;PMS_P2;Temp;Humidity;BMP_temperature;BMP_pressure;BME280_temperature;BME280_humidity;BME280_pressure;Samples;Min_cycle;Max_cycle;Signal;HPM_P1;HPM_P2
2021/12/20 00:01:17;;;;;;;;;;;16.40;59.20;;;;;;5064616;28;19900;-71
2021/12/20 00:03:43;;;;;;;;;;;16.40;59.20;;;;;;5100912;28;19908;-72
2021/12/20 00:06:09;;;;;;;;;;;16.50;59.10;;;;;;5101270;28;19908;-72
2021/12/20 00:08:36;;;;;;;;;;;16.40;59.20;;;;;;5083514;28;19939;-71
2021/12/20 00:11:02;;;;;;;;;;;16.40;59.10;;;;;;5101501;28;19900;-71
2021/12/20 00:13:28;;;;;;;;;;;16.40;59.20;;;;;;5101525;28;20097;-71
2021/12/20 00:15:55;;;;;;;;;;;16.50;59.30;;;;;;5101457;28;20236;-71
2021/12/20 00:18:20;;;;;;;;;;;16.50;59.20;;;;;;5101451;28;19914;-72
2021/12/20 00:20:46;;;;;;;;;;;16.50;59.30;;;;;;5101420;28;20158;-71
2021/12/20 00:23:12;;;;;;;;;;;16.50;59.20;;;;;;5101219;28;19988;-71
2021/12/20 00:25:37;;;;;;;;;;;16.50;59.20;;;;;;5101347;28;19908;-71
2021/12/20 00:28:03;;;;;;;;;;;16.40;59.20;;;;;;5101225;28;19907;-71
2021/12/20 00:30:29;;;;;;;;;;;16.50;59.20;;;;;;5101137;28;19976;-71
2021/12/20 00:32:54;;;;;;;;;;;16.50;59.30;;;;;;5100850;28;20332;-70
2021/12/20 00:35:24;;;;;;;;;;;16.50;59.20;;;;;;5101060;28;20001;-72
2021/12/20 00:40:34;;;;;;;;;;;16.50;59.20;;;;;;5101138;28;19972;-71
2021/12/20 00:43:01;;;;;;;;;;;16.50;59.10;;;;;;5100833;28;19912;-71
2021/12/20 00:45:28;;;;;;;;;;;16.50;59.20;;;;;;5100927;28;19963;-71
2021/12/20 00:47:54;;;;;;;;;;;16.50;59.20;;;;;;5100894;28;20180;-70
2021/12/20 00:50:21;;;;;;;;;;;16.50;59.20;;;;;;5100807;28;19915;-70
2021/12/20 00:52:47;;;;;;;;;;;16.50;59.20;;;;;;5100870;28;19937;-71
2021/12/20 00:55:16;;;;;;;;;;;16.50;59.30;;;;;;5100919;28;20187;-70
2021/12/20 00:57:42;;;;;;;;;;;16.50;59.20;;;;;;5100804;28;19900;-71
2021/12/20 01:00:09;;;;;;;;;;;16.50;59.20;;;;;;5100774;28;19914;-71
2021/12/20 01:02:35;;;;;;;;;;;16.50;59.10;;;;;;5100450;28;19920;-70
2021/12/20 01:05:00;;;;;;;;;;;16.50;59.10;;;;;;5100748;28;19914;-71
2021/12/20 01:07:26;;;;;;;;;;;16.50;59.20;;;;;;5100594;28;20155;-70
2021/12/20 01:09:53;;;;;;;;;;;16.50;59.20;;;;;;5100541;28;19979;-70
2021/12/20 01:12:20;;;;;;;;;;;16.50;59.30;;;;;;5100535;28;19907;-70
2021/12/20 01:14:46;;;;;;;;;;;16.50;59.20;;;;;;5100481;28;19908;-73
2021/12/20 01:17:12;;;;;;;;;;;16.50;59.20;;;;;;5100286;28;19962;-72
2021/12/20 01:19:38;;;;;;;;;;;16.50;59.30;;;;;;5100492;28;20138;-72
2021/12/20 01:22:05;;;;;;;;;;;16.50;59.30;;;;;;5100336;28;19907;-70
2021/12/20 01:24:30;;;;;;;;;;;16.50;59.20;;;;;;5100437;28;19908;-70
2021/12/20 01:26:56;;;;;;;;;;;16.50;59.20;;;;;;5100305;28;19954;-70
2021/12/20 01:29:22;;;;;;;;;;;16.50;59.30;;;;;;5100299;28;20084;-71
2021/12/20 01:31:48;;;;;;;;;;;16.50;59.30;;;;;;5100217;28;19914;-71
2021/12/20 01:34:14;;;;;;;;;;;16.50;59.30;;;;;;5100280;28;19908;-70
2021/12/20 01:36:40;;;;;;;;;;;16.50;59.30;;;;;;5100190;28;19945;-72
2021/12/20 01:39:05;;;;;;;;;;;16.50;59.40;;;;;;5100172;28;19907;-71
2021/12/20 01:41:31;;;;;;;;;;;16.40;59.20;;;;;;5100056;28;19900;-71
2021/12/20 01:43:57;;;;;;;;;;;16.50;59.30;;;;;;5100069;28;19950;-71
2021/12/20 01:46:24;;;;;;;;;;;16.50;59.30;;;;;;5100151;28;19954;-71
2021/12/20 01:48:50;;;;;;;;;;;16.50;59.30;;;;;;5100055;28;20139;-71
2021/12/20 01:54:00;;;;;;;;;;;16.50;59.30;;;;;;5100073;28;20242;-71
2021/12/20 01:56:27;;;;;;;;;;;16.50;59.30;;;;;;5100026;28;19908;-71
2021/12/20 01:58:59;;;;;;;;;;;16.50;59.30;;;;;;5099928;28;19908;-71
2021/12/20 02:01:25;;;;;;;;;;;16.50;59.30;;;;;;5099954;28;20122;-70
2021/12/20 02:03:56;;;;;;;;;;;16.50;59.20;;;;;;5099975;28;19936;-70
2021/12/20 02:06:32;;;;;;;;;;;16.50;59.30;;;;;;5100024;28;19930;-71
2021/12/20 02:08:59;;;;;;;;;;;16.50;59.20;;;;;;5099941;28;19930;-70
2021/12/20 02:11:25;;;;;;;;;;;16.50;59.30;;;;;;5099875;28;19931;-71
2021/12/20 02:13:51;;;;;;;;;;;16.50;59.30;;;;;;5099897;28;20107;-70
2021/12/20 02:16:18;;;;;;;;;;;16.50;59.20;;;;;;5099868;28;20071;-70
2021/12/20 02:18:43;;;;;;;;;;;16.40;59.20;;;;;;5099840;28;20018;-71
2021/12/20 02:21:09;;;;;;;;;;;16.50;59.30;;;;;;5099802;28;20394;-71
2021/12/20 02:23:35;;;;;;;;;;;16.50;59.30;;;;;;5099722;28;20134;-71
2021/12/20 02:26:00;;;;;;;;;;;16.50;59.30;;;;;;5099752;28;19908;-71
2021/12/20 02:28:29;;;;;;;;;;;16.50;59.20;;;;;;5102178;28;19923;-71
2021/12/20 02:39:11;;;;;;;;;;;16.50;59.20;;;;;;5103555;28;20229;-71
2021/12/20 02:41:37;;;;;;;;;;;16.50;59.30;;;;;;5103490;28;19912;-71
2021/12/20 02:44:06;;;;;;;;;;;16.40;59.30;;;;;;5103501;28;19977;-70
2021/12/20 02:49:02;;;;;;;;;;;16.50;59.30;;;;;;5103540;28;19908;-71
2021/12/20 02:51:28;;;;;;;;;;;16.50;59.30;;;;;;5103198;28;19914;-72
2021/12/20 02:53:55;;;;;;;;;;;16.50;59.30;;;;;;5103248;28;19901;-71
2021/12/20 02:56:21;;;;;;;;;;;16.50;59.30;;;;;;5103077;28;19914;-71
2021/12/20 02:58:47;;;;;;;;;;;16.40;59.30;;;;;;5103169;28;19939;-72
2021/12/20 03:01:12;;;;;;;;;;;16.40;59.20;;;;;;5103081;28;19915;-71
2021/12/20 03:03:39;;;;;;;;;;;16.50;59.20;;;;;;5102754;28;19916;-71
2021/12/20 03:06:11;;;;;;;;;;;16.40;59.20;;;;;;5103079;28;20186;-71
2021/12/20 03:08:37;;;;;;;;;;;16.40;59.10;;;;;;5102920;28;19908;-71
2021/12/20 03:11:03;;;;;;;;;;;16.40;59.20;;;;;;5102897;28;20093;-72
2021/12/20 03:13:29;;;;;;;;;;;16.40;59.20;;;;;;5102832;28;19907;-71
2021/12/20 03:15:55;;;;;;;;;;;16.50;59.10;;;;;;5102798;28;19908;-71
2021/12/20 03:18:20;;;;;;;;;;;16.40;59.20;;;;;;5102691;28;19930;-71
2021/12/20 03:20:46;;;;;;;;;;;16.50;59.30;;;;;;5102670;28;19900;-72
2021/12/20 03:23:11;;;;;;;;;;;16.40;59.20;;;;;;5102531;28;19946;-71
2021/12/20 03:25:37;;;;;;;;;;;16.40;59.10;;;;;;5102565;28;20223;-71
2021/12/20 03:28:03;;;;;;;;;;;16.40;59.20;;;;;;5102624;28;19971;-71
2021/12/20 03:30:28;;;;;;;;;;;16.40;59.20;;;;;;5102452;28;19922;-72
2021/12/20 03:32:54;;;;;;;;;;;16.40;59.20;;;;;;5102424;28;19914;-72
2021/12/20 03:35:23;;;;;;;;;;;16.40;59.30;;;;;;5102348;28;19908;-71
2021/12/20 03:37:48;;;;;;;;;;;16.40;59.30;;;;;;5102355;28;19967;-72
2021/12/20 03:40:14;;;;;;;;;;;16.40;59.20;;;;;;5102323;28;19954;-71
2021/12/20 03:42:43;;;;;;;;;;;16.40;59.20;;;;;;5083970;28;20199;-72
2021/12/20 03:45:09;;;;;;;;;;;16.40;59.20;;;;;;5102192;28;20200;-71
2021/12/20 03:47:34;;;;;;;;;;;16.40;59.10;;;;;;5102175;28;19908;-71
2021/12/20 03:50:00;;;;;;;;;;;16.40;59.10;;;;;;5102093;28;19908;-71
2021/12/20 03:52:26;;;;;;;;;;;16.40;59.30;;;;;;5102009;28;20109;-71
2021/12/20 03:54:51;;;;;;;;;;;16.50;59.30;;;;;;5101864;28;20105;-71
2021/12/20 03:57:17;;;;;;;;;;;16.40;59.20;;;;;;5083804;28;20333;-71
2021/12/20 03:59:46;;;;;;;;;;;16.40;59.20;;;;;;5101933;28;19911;-72
2021/12/20 04:02:16;;;;;;;;;;;16.40;59.80;;;;;;5083485;28;20085;-71
2021/12/20 04:04:41;;;;;;;;;;;16.40;59.10;;;;;;5101809;28;19900;-71
2021/12/20 04:07:07;;;;;;;;;;;16.40;59.20;;;;;;5102066;28;20180;-71
2021/12/20 04:09:33;;;;;;;;;;;16.40;59.20;;;;;;5101694;28;19908;-71
2021/12/20 04:11:58;;;;;;;;;;;16.40;59.10;;;;;;5101653;28;19900;-71
2021/12/20 04:14:24;;;;;;;;;;;16.40;59.10;;;;;;5101580;28;20132;-71
2021/12/20 04:16:50;;;;;;;;;;;16.40;59.10;;;;;;5101534;28;19987;-71
2021/12/20 04:19:15;;;;;;;;;;;16.40;59.20;;;;;;5083345;28;19966;-70
2021/12/20 04:21:41;;;;;;;;;;;16.40;59.10;;;;;;5101503;28;19900;-71
2021/12/20 04:24:07;;;;;;;;;;;16.40;59.10;;;;;;5101407;28;19912;-71
2021/12/20 04:26:32;;;;;;;;;;;16.40;59.70;;;;;;5101377;28;19974;-71
2021/12/20 04:28:58;;;;;;;;;;;16.40;59.10;;;;;;5083126;28;20131;-71
2021/12/20 04:31:24;;;;;;;;;;;16.40;59.10;;;;;;5101253;28;19907;-71
2021/12/20 04:33:49;;;;;;;;;;;16.40;59.20;;;;;;5101145;28;19908;-71
2021/12/20 04:36:15;;;;;;;;;;;16.40;59.10;;;;;;5101170;28;19957;-71
2021/12/20 04:38:41;;;;;;;;;;;16.40;59.20;;;;;;5101121;28;19908;-71
2021/12/20 04:41:06;;;;;;;;;;;16.40;59.10;;;;;;5101037;28;20390;-71
2021/12/20 04:43:32;;;;;;;;;;;16.40;59.20;;;;;;5100921;28;19915;-71
2021/12/20 04:45:58;;;;;;;;;;;16.40;59.20;;;;;;5100954;28;19975;-71
2021/12/20 04:48:23;;;;;;;;;;;16.40;59.10;;;;;;5082746;28;19979;-71
2021/12/20 04:50:49;;;;;;;;;;;16.40;59.10;;;;;;5100404;28;19915;-72
2021/12/20 04:53:15;;;;;;;;;;;16.40;59.20;;;;;;5100805;28;19916;-73
2021/12/20 04:55:40;;;;;;;;;;;16.40;59.10;;;;;;5100672;28;19912;-71
2021/12/20 04:58:06;;;;;;;;;;;16.40;59.10;;;;;;5100784;28;19971;-71
2021/12/20 05:00:33;;;;;;;;;;;16.40;59.10;;;;;;5100683;28;19914;-71
2021/12/20 05:02:59;;;;;;;;;;;16.40;59.10;;;;;;5100459;28;19912;-71
2021/12/20 05:05:25;;;;;;;;;;;16.30;59.10;;;;;;5100665;28;20094;-70
2021/12/20 05:07:51;;;;;;;;;;;16.30;59.10;;;;;;5100547;28;19976;-71
2021/12/20 05:10:28;;;;;;;;;;;16.40;59.00;;;;;;5100489;28;20242;-72
2021/12/20 05:12:55;;;;;;;;;;;16.40;59.10;;;;;;5100562;28;20159;-70
2021/12/20 05:15:21;;;;;;;;;;;16.30;59.10;;;;;;5100405;28;19915;-71
2021/12/20 05:17:47;;;;;;;;;;;16.40;59.00;;;;;;5082250;28;19907;-70
2021/12/20 05:20:13;;;;;;;;;;;16.40;59.10;;;;;;5100379;28;19915;-71
2021/12/20 05:22:39;;;;;;;;;;;16.40;59.10;;;;;;5100334;28;19915;-70
2021/12/20 05:25:04;;;;;;;;;;;16.30;59.00;;;;;;5100373;28;19915;-70
2021/12/20 05:27:30;;;;;;;;;;;16.30;59.00;;;;;;5100317;28;19915;-71
2021/12/20 05:29:56;;;;;;;;;;;16.30;59.00;;;;;;5100274;28;20195;-70
2021/12/20 05:32:21;;;;;;;;;;;16.30;59.00;;;;;;5100226;28;19966;-71
2021/12/20 05:34:47;;;;;;;;;;;16.30;59.00;;;;;;5082125;28;19975;-70
2021/12/20 05:37:13;;;;;;;;;;;16.30;58.90;;;;;;5100211;28;19908;-71
2021/12/20 05:39:40;;;;;;;;;;;16.30;59.10;;;;;;5100167;28;20194;-71
2021/12/20 05:42:06;;;;;;;;;;;16.30;59.10;;;;;;5081950;28;19914;-71
2021/12/20 05:44:32;;;;;;;;;;;16.30;59.00;;;;;;5100105;28;19930;-71
2021/12/20 05:46:57;;;;;;;;;;;16.30;59.00;;;;;;5100182;28;20226;-71
2021/12/20 05:49:23;;;;;;;;;;;16.30;59.00;;;;;;5100042;28;19907;-70
2021/12/20 05:51:48;;;;;;;;;;;16.30;58.90;;;;;;5100003;28;19959;-71
2021/12/20 05:54:14;;;;;;;;;;;16.30;59.00;;;;;;5100025;28;19908;-70
2021/12/20 05:56:40;;;;;;;;;;;16.30;59.50;;;;;;5100011;28;19921;-70
2021/12/20 05:59:05;;;;;;;;;;;16.30;58.90;;;;;;5099963;28;19907;-72
2021/12/20 06:01:31;;;;;;;;;;;16.30;59.00;;;;;;5099806;28;19904;-71
2021/12/20 06:03:57;;;;;;;;;;;16.30;59.00;;;;;;5103362;28;19916;-71
2021/12/20 06:06:23;;;;;;;;;;;16.30;58.90;;;;;;5104031;28;19899;-70
2021/12/20 06:08:48;;;;;;;;;;;16.30;59.00;;;;;;5104008;28;19908;-73
2021/12/20 06:11:14;;;;;;;;;;;16.30;59.00;;;;;;5103976;28;19915;-70
2021/12/20 06:13:40;;;;;;;;;;;16.30;58.90;;;;;;5103971;28;19998;-71
2021/12/20 06:16:05;;;;;;;;;;;16.30;59.00;;;;;;5085817;28;19971;-72
2021/12/20 06:18:31;;;;;;;;;;;16.30;59.00;;;;;;5103851;28;20445;-71
2021/12/20 06:20:57;;;;;;;;;;;16.30;59.10;;;;;;5103852;28;19930;-71
2021/12/20 06:23:22;;;;;;;;;;;16.30;59.00;;;;;;5085540;28;19908;-70
2021/12/20 06:25:48;;;;;;;;;;;16.30;58.90;;;;;;5103745;28;19915;-71
2021/12/20 06:28:13;;;;;;;;;;;16.30;58.90;;;;;;5103694;28;19922;-70
2021/12/20 06:30:39;;;;;;;;;;;16.30;59.00;;;;;;5103557;28;19908;-70
2021/12/20 06:33:05;;;;;;;;;;;16.30;58.90;;;;;;5103664;28;19953;-71
2021/12/20 06:35:31;;;;;;;;;;;16.30;59.00;;;;;;5085418;28;19915;-71
2021/12/20 06:38:04;;;;;;;;;;;16.30;58.90;;;;;;5103553;28;19924;-71
2021/12/20 06:40:31;;;;;;;;;;;16.30;58.90;;;;;;5103432;28;19914;-71
2021/12/20 06:42:57;;;;;;;;;;;16.30;59.00;;;;;;5103371;28;19919;-71
2021/12/20 06:45:22;;;;;;;;;;;16.30;59.00;;;;;;5103323;28;19900;-71
2021/12/20 06:47:48;;;;;;;;;;;16.30;59.00;;;;;;5103387;28;19912;-72
2021/12/20 06:50:14;;;;;;;;;;;16.30;59.00;;;;;;5103246;28;19938;-71
2021/12/20 06:52:39;;;;;;;;;;;16.30;58.90;;;;;;5103179;28;19930;-71
2021/12/20 06:55:05;;;;;;;;;;;16.30;59.00;;;;;;5103268;28;19912;-71
2021/12/20 06:57:31;;;;;;;;;;;16.30;58.90;;;;;;5103205;28;19946;-71
2021/12/20 06:59:57;;;;;;;;;;;16.30;58.90;;;;;;5084961;28;19908;-71
2021/12/20 07:02:23;;;;;;;;;;;16.30;58.90;;;;;;5102434;28;19943;-71
2021/12/20 07:04:48;;;;;;;;;;;16.30;58.90;;;;;;5083707;28;19907;-72
2021/12/20 07:07:14;;;;;;;;;;;16.30;58.90;;;;;;5101840;28;19900;-72
2021/12/20 07:09:40;;;;;;;;;;;16.30;58.90;;;;;;5101662;28;19946;-71
2021/12/20 07:12:05;;;;;;;;;;;16.30;58.90;;;;;;5101693;28;19915;-72
2021/12/20 07:14:31;;;;;;;;;;;16.30;58.80;;;;;;5101238;28;20076;-71
2021/12/20 07:16:57;;;;;;;;;;;16.30;58.80;;;;;;5101604;28;19914;-72
2021/12/20 07:19:23;;;;;;;;;;;16.30;58.90;;;;;;5101588;28;19908;-71
2021/12/20 07:21:48;;;;;;;;;;;16.30;59.00;;;;;;5101526;28;20218;-71
2021/12/20 07:24:14;;;;;;;;;;;16.30;58.90;;;;;;5101445;28;19912;-71
2021/12/20 07:26:43;;;;;;;;;;;16.30;58.80;;;;;;5083268;28;19947;-71
2021/12/20 07:29:08;;;;;;;;;;;16.30;58.80;;;;;;5101329;28;19942;-72
2021/12/20 07:31:34;;;;;;;;;;;16.30;58.90;;;;;;5101350;28;19923;-72
2021/12/20 07:34:00;;;;;;;;;;;16.30;59.00;;;;;;5101346;28;19908;-72
2021/12/20 07:36:25;;;;;;;;;;;16.30;58.90;;;;;;5101250;28;19907;-72
2021/12/20 07:38:51;;;;;;;;;;;16.30;58.90;;;;;;5101249;28;19900;-71
2021/12/20 07:41:20;;;;;;;;;;;16.30;58.80;;;;;;5101321;28;19915;-72
2021/12/20 07:43:47;;;;;;;;;;;16.30;58.80;;;;;;5101110;28;19904;-71
2021/12/20 07:46:13;;;;;;;;;;;16.30;58.80;;;;;;5083003;28;19900;-71
2021/12/20 07:48:38;;;;;;;;;;;16.30;58.80;;;;;;5101063;28;20107;-71
2021/12/20 07:51:04;;;;;;;;;;;16.30;58.90;;;;;;5101073;28;19962;-71
2021/12/20 07:53:30;;;;;;;;;;;16.30;58.80;;;;;;5100918;28;19945;-71
2021/12/20 07:55:56;;;;;;;;;;;16.30;58.70;;;;;;5100936;28;19911;-71
2021/12/20 07:58:22;;;;;;;;;;;16.30;58.80;;;;;;5100938;28;19935;-70
2021/12/20 08:00:47;;;;;;;;;;;16.30;58.90;;;;;;5100936;28;20449;-71
2021/12/20 08:03:13;;;;;;;;;;;16.30;58.80;;;;;;5056378;28;1279208;-71
2021/12/20 08:05:38;;;;;;;;;;;16.30;58.80;;;;;;5083602;28;19903;-71
2021/12/20 08:08:05;;;;;;;;;;;16.30;58.80;;;;;;5101795;28;20128;-70
2021/12/20 08:10:31;;;;;;;;;;;16.40;58.70;;;;;;5101659;28;19950;-71
2021/12/20 08:12:56;;;;;;;;;;;16.40;58.40;;;;;;5101645;28;20216;-71
2021/12/20 08:15:22;;;;;;;;;;;16.40;58.20;;;;;;5101543;28;19915;-71
2021/12/20 08:17:49;;;;;;;;;;;16.50;58.10;;;;;;5101482;28;19918;-71
2021/12/20 08:20:15;;;;;;;;;;;16.50;57.70;;;;;;5101587;28;20254;-70
2021/12/20 08:22:40;;;;;;;;;;;16.60;57.90;;;;;;5101432;28;19916;-70
2021/12/20 08:25:06;;;;;;;;;;;16.60;58.20;;;;;;5100628;28;19942;-71
2021/12/20 08:27:32;;;;;;;;;;;16.60;57.70;;;;;;5101353;28;19908;-71
2021/12/20 08:29:58;;;;;;;;;;;16.60;57.80;;;;;;5101333;28;19966;-72
2021/12/20 08:32:24;;;;;;;;;;;16.70;57.30;;;;;;5101356;28;19931;-70
2021/12/20 08:34:49;;;;;;;;;;;16.70;57.80;;;;;;5101181;28;20167;-71
2021/12/20 08:37:15;;;;;;;;;;;16.70;57.50;;;;;;5101220;28;20184;-70
2021/12/20 08:39:41;;;;;;;;;;;16.70;57.50;;;;;;5101088;28;19908;-71
2021/12/20 08:42:07;;;;;;;;;;;16.80;57.10;;;;;;5100980;28;20238;-71
2021/12/20 08:44:33;;;;;;;;;;;16.80;57.60;;;;;;5100979;28;19969;-71
2021/12/20 08:46:59;;;;;;;;;;;16.80;57.70;;;;;;5100975;28;20203;-71
2021/12/20 08:49:25;;;;;;;;;;;16.80;57.70;;;;;;5100914;28;19971;-71
2021/12/20 08:51:51;;;;;;;;;;;16.80;56.80;;;;;;5100853;28;20085;-71
2021/12/20 08:54:17;;;;;;;;;;;16.80;57.70;;;;;;5100853;28;19908;-71
2021/12/20 08:56:42;;;;;;;;;;;16.80;57.80;;;;;;5082493;28;19984;-71
2021/12/20 08:59:09;;;;;;;;;;;16.90;57.90;;;;;;5100686;28;20200;-71
2021/12/20 09:01:35;;;;;;;;;;;16.90;57.80;;;;;;5100610;28;19965;-71
2021/12/20 09:04:02;;;;;;;;;;;16.90;57.80;;;;;;5100643;28;19911;-71
2021/12/20 09:06:28;;;;;;;;;;;16.90;57.70;;;;;;5100614;28;19908;-72
2021/12/20 09:08:55;;;;;;;;;;;16.90;57.80;;;;;;5082440;28;19904;-71
2021/12/20 09:11:21;;;;;;;;;;;16.90;57.90;;;;;;5082337;28;19915;-71
2021/12/20 09:13:47;;;;;;;;;;;16.90;57.50;;;;;;5100498;28;19908;-71
2021/12/20 09:16:13;;;;;;;;;;;16.90;57.80;;;;;;5082329;28;19930;-71
2021/12/20 09:18:38;;;;;;;;;;;16.90;57.80;;;;;;5100526;28;20258;-71
2021/12/20 09:21:04;;;;;;;;;;;16.90;57.90;;;;;;5082523;28;19908;-71
2021/12/20 09:23:32;;;;;;;;;;;16.90;57.90;;;;;;5100299;28;19912;-71
2021/12/20 09:25:57;;;;;;;;;;;16.90;57.90;;;;;;5100279;28;19907;-71
2021/12/20 09:28:23;;;;;;;;;;;17.00;58.00;;;;;;5100220;28;20104;-71
2021/12/20 09:30:49;;;;;;;;;;;17.00;58.10;;;;;;5081994;28;19900;-72
2021/12/20 09:33:15;;;;;;;;;;;17.00;58.10;;;;;;5100208;28;19908;-71
2021/12/20 09:35:41;;;;;;;;;;;17.00;58.10;;;;;;5100130;28;20253;-71
2021/12/20 09:38:10;;;;;;;;;;;17.00;58.10;;;;;;5100053;28;19908;-70
2021/12/20 09:40:38;;;;;;;;;;;17.00;58.00;;;;;;5100078;28;19912;-71
2021/12/20 09:43:08;;;;;;;;;;;17.00;58.10;;;;;;5100068;28;19912;-70
2021/12/20 09:45:34;;;;;;;;;;;17.00;58.10;;;;;;5100008;28;19938;-69
2021/12/20 09:48:00;;;;;;;;;;;17.00;58.20;;;;;;5099979;28;19908;-70
2021/12/20 09:50:26;;;;;;;;;;;17.00;58.10;;;;;;5081886;28;19908;-70
2021/12/20 09:52:52;;;;;;;;;;;17.00;58.10;;;;;;5099996;28;19978;-71
2021/12/20 09:55:17;;;;;;;;;;;17.00;58.10;;;;;;5099940;28;19900;-70
2021/12/20 09:57:44;;;;;;;;;;;17.10;58.30;;;;;;5100193;28;19907;-71
2021/12/20 10:00:11;;;;;;;;;;;17.10;58.20;;;;;;5099791;28;19915;-71
2021/12/20 10:02:37;;;;;;;;;;;17.10;58.20;;;;;;5099600;28;19919;-71
2021/12/20 10:05:03;;;;;;;;;;;17.10;58.20;;;;;;5099817;28;19899;-70
2021/12/20 10:07:29;;;;;;;;;;;17.10;58.20;;;;;;5099706;28;19910;-70
2021/12/20 10:09:55;;;;;;;;;;;17.10;58.30;;;;;;5099812;28;19908;-70
2021/12/20 10:12:27;;;;;;;;;;;17.10;58.20;;;;;;5099708;28;19930;-70
2021/12/20 10:15:10;;;;;;;;;;;17.10;58.80;;;;;;5099736;28;19907;-71
2021/12/20 10:17:52;;;;;;;;;;;17.10;58.20;;;;;;5099689;28;19908;-71
2021/12/20 10:20:20;;;;;;;;;;;17.10;57.90;;;;;;5099687;28;19900;-71
2021/12/20 10:22:46;;;;;;;;;;;17.20;58.10;;;;;;5099632;28;19912;-70
2021/12/20 10:25:21;;;;;;;;;;;17.20;58.20;;;;;;5099627;28;19997;-70
2021/12/20 10:27:47;;;;;;;;;;;17.20;58.20;;;;;;5099650;28;19908;-71
2021/12/20 10:30:21;;;;;;;;;;;17.20;58.30;;;;;;5099664;28;19978;-71
2021/12/20 10:32:47;;;;;;;;;;;17.20;58.30;;;;;;5099585;28;20022;-72
2021/12/20 10:35:24;;;;;;;;;;;17.20;58.30;;;;;;5099540;28;19912;-71
2021/12/20 10:37:50;;;;;;;;;;;17.20;58.10;;;;;;5099459;28;19949;-71
2021/12/20 10:40:16;;;;;;;;;;;17.20;58.20;;;;;;5099519;28;20199;-71
2021/12/20 10:42:41;;;;;;;;;;;17.20;58.20;;;;;;5099386;28;19994;-71
2021/12/20 10:45:08;;;;;;;;;;;17.20;58.30;;;;;;5081442;28;19967;-71
2021/12/20 10:47:34;;;;;;;;;;;17.20;58.30;;;;;;5099430;28;19912;-71
2021/12/20 10:50:18;;;;;;;;;;;17.20;58.30;;;;;;5102592;28;19976;-70
2021/12/20 10:52:44;;;;;;;;;;;17.20;58.30;;;;;;5103206;28;19921;-70
2021/12/20 10:55:11;;;;;;;;;;;17.30;58.30;;;;;;5103038;28;19908;-71
2021/12/20 10:57:37;;;;;;;;;;;17.20;58.30;;;;;;5103010;28;19975;-71
2021/12/20 11:00:16;;;;;;;;;;;17.20;58.30;;;;;;5102957;28;19908;-72
2021/12/20 11:05:44;;;;;;;;;;;17.20;58.30;;;;;;5102920;28;19942;-70
2021/12/20 11:11:13;;;;;;;;;;;17.30;58.30;;;;;;5102805;28;19976;-71
2021/12/20 11:13:40;;;;;;;;;;;17.30;58.10;;;;;;5102631;28;19939;-71
2021/12/20 11:16:27;;;;;;;;;;;17.30;58.20;;;;;;5102632;28;19935;-71
2021/12/20 11:19:12;;;;;;;;;;;17.30;58.20;;;;;;5102559;28;19912;-70
2021/12/20 11:21:45;;;;;;;;;;;17.30;58.10;;;;;;5102488;28;19943;-70
2021/12/20 11:24:12;;;;;;;;;;;17.30;58.10;;;;;;5102386;28;19919;-71
2021/12/20 11:26:38;;;;;;;;;;;17.30;58.10;;;;;;5102412;28;19900;-71
2021/12/20 11:29:04;;;;;;;;;;;17.40;58.00;;;;;;5084277;28;19907;-71
2021/12/20 11:31:32;;;;;;;;;;;17.30;58.10;;;;;;5102233;28;19915;-71
2021/12/20 11:33:59;;;;;;;;;;;17.30;57.90;;;;;;5102302;28;19908;-70
2021/12/20 11:36:25;;;;;;;;;;;17.30;58.10;;;;;;5102365;28;19995;-71
2021/12/20 11:38:51;;;;;;;;;;;17.30;58.30;;;;;;5102200;28;19900;-71
2021/12/20 11:41:17;;;;;;;;;;;17.30;58.30;;;;;;5102176;28;19947;-71
2021/12/20 11:43:44;;;;;;;;;;;17.30;58.30;;;;;;5102015;28;19904;-71
2021/12/20 11:46:11;;;;;;;;;;;17.30;58.30;;;;;;5102077;28;19979;-71
2021/12/20 11:48:37;;;;;;;;;;;17.30;58.40;;;;;;5102003;28;19908;-71
2021/12/20 11:51:03;;;;;;;;;;;17.30;58.40;;;;;;5101948;28;19908;-70
2021/12/20 11:53:36;;;;;;;;;;;17.30;58.30;;;;;;5101881;28;20006;-71
2021/12/20 11:56:03;;;;;;;;;;;17.30;57.50;;;;;;5101786;28;19939;-71
2021/12/20 11:58:30;;;;;;;;;;;17.20;57.80;;;;;;5101718;28;19908;-70
2021/12/20 12:01:04;;;;;;;;;;;17.20;58.10;;;;;;5100803;28;19915;-71
2021/12/20 12:03:31;;;;;;;;;;;17.30;59.10;;;;;;5101563;28;19942;-72
2021/12/20 12:06:00;;;;;;;;;;;17.20;58.40;;;;;;5101661;28;19908;-72
2021/12/20 12:08:32;;;;;;;;;;;17.30;58.50;;;;;;5101636;28;19967;-71
2021/12/20 12:11:20;;;;;;;;;;;17.30;58.00;;;;;;5083378;28;19900;-72
2021/12/20 12:16:27;;;;;;;;;;;17.30;57.90;;;;;;5101479;28;20206;-71
2021/12/20 12:18:53;;;;;;;;;;;17.20;57.30;;;;;;5101445;28;19912;-71
2021/12/20 12:21:46;;;;;;;;;;;17.20;57.60;;;;;;5101336;28;19912;-71
2021/12/20 12:24:14;;;;;;;;;;;17.20;58.10;;;;;;5097090;28;19919;-71
2021/12/20 12:26:41;;;;;;;;;;;17.20;58.00;;;;;;5101204;28;19994;-71
2021/12/20 12:29:14;;;;;;;;;;;17.30;57.90;;;;;;5083028;28;20231;-71
2021/12/20 12:31:49;;;;;;;;;;;17.20;57.50;;;;;;5101133;28;19939;-72
2021/12/20 12:34:14;;;;;;;;;;;17.20;57.90;;;;;;5082624;28;19908;-71
2021/12/20 12:36:42;;;;;;;;;;;17.30;57.90;;;;;;5101055;28;19945;-71
2021/12/20 12:39:10;;;;;;;;;;;17.30;57.90;;;;;;5101035;28;19908;-71
2021/12/20 12:41:46;;;;;;;;;;;17.30;57.60;;;;;;5101039;28;19944;-72
2021/12/20 12:44:15;;;;;;;;;;;17.30;57.40;;;;;;5100810;28;20192;-72
2021/12/20 12:46:41;;;;;;;;;;;17.30;57.30;;;;;;5100785;28;19908;-70
2021/12/20 12:49:22;;;;;;;;;;;17.30;57.30;;;;;;5100871;28;20112;-71
2021/12/20 12:51:54;;;;;;;;;;;17.20;57.50;;;;;;5100811;28;19900;-72
2021/12/20 12:54:32;;;;;;;;;;;17.20;57.60;;;;;;5100677;28;19914;-72
2021/12/20 12:57:09;;;;;;;;;;;17.30;58.10;;;;;;5100649;28;19908;-70
2021/12/20 12:59:47;;;;;;;;;;;17.30;58.00;;;;;;5100751;28;19939;-70
2021/12/20 13:02:23;;;;;;;;;;;17.20;58.00;;;;;;5082196;28;19908;-71
2021/12/20 13:04:50;;;;;;;;;;;17.20;56.90;;;;;;5100512;28;19983;-71
2021/12/20 13:07:16;;;;;;;;;;;17.20;57.30;;;;;;5100523;28;19950;-70
2021/12/20 13:09:44;;;;;;;;;;;17.20;56.80;;;;;;5100471;28;19908;-71
2021/12/20 13:12:13;;;;;;;;;;;17.20;57.00;;;;;;5100088;28;19951;-71
2021/12/20 13:15:23;;;;;;;;;;;17.20;56.70;;;;;;5100420;28;20200;-72
2021/12/20 13:17:51;;;;;;;;;;;17.20;56.80;;;;;;4998359;28;19909;-71
2021/12/20 13:22:57;;;;;;;;;;;17.20;57.10;;;;;;5100511;28;19957;-70
2021/12/20 13:25:35;;;;;;;;;;;17.30;57.10;;;;;;5100193;28;19912;-70
2021/12/20 13:28:01;;;;;;;;;;;17.30;56.90;;;;;;5100221;28;19907;-71
2021/12/20 13:30:30;;;;;;;;;;;17.30;56.60;;;;;;5100178;28;19988;-71
2021/12/20 13:32:56;;;;;;;;;;;17.30;56.50;;;;;;5100181;28;19935;-71
2021/12/20 13:35:22;;;;;;;;;;;17.30;56.60;;;;;;5100049;28;19908;-72
2021/12/20 13:37:49;;;;;;;;;;;17.30;57.30;;;;;;5100161;28;20080;-71
2021/12/20 13:40:15;;;;;;;;;;;17.30;57.60;;;;;;5100011;28;19938;-70
2021/12/20 13:42:48;;;;;;;;;;;17.30;57.60;;;;;;5099953;28;19903;-70
2021/12/20 13:45:14;;;;;;;;;;;17.30;56.80;;;;;;5100019;28;19912;-71
2021/12/20 13:47:41;;;;;;;;;;;17.30;57.10;;;;;;5099860;28;19915;-71
2021/12/20 13:50:17;;;;;;;;;;;17.30;56.50;;;;;;5099911;28;19997;-71
2021/12/20 13:52:46;;;;;;;;;;;17.30;56.90;;;;;;5099862;28;20096;-71
2021/12/20 13:55:12;;;;;;;;;;;17.30;57.00;;;;;;5099959;28;20223;-70
2021/12/20 13:57:38;;;;;;;;;;;17.30;57.20;;;;;;5099817;28;19939;-71
2021/12/20 14:00:08;;;;;;;;;;;17.30;57.10;;;;;;5099934;28;20145;-71
2021/12/20 14:02:35;;;;;;;;;;;17.30;57.60;;;;;;5099382;28;19920;-72
2021/12/20 14:05:13;;;;;;;;;;;17.30;57.00;;;;;;5099786;28;19949;-71
2021/12/20 14:07:43;;;;;;;;;;;17.20;56.90;;;;;;5099685;28;20262;-71
2021/12/20 14:10:09;;;;;;;;;;;17.20;56.80;;;;;;5099691;28;19908;-71
2021/12/20 14:12:54;;;;;;;;;;;17.20;56.30;;;;;;5099749;28;20108;-71
2021/12/20 14:15:21;;;;;;;;;;;17.20;56.60;;;;;;5098900;28;19915;-71
2021/12/20 14:17:52;;;;;;;;;;;17.20;56.80;;;;;;5099657;28;19915;-71
2021/12/20 14:20:18;;;;;;;;;;;17.20;57.20;;;;;;5099689;28;19915;-71
2021/12/20 14:22:59;;;;;;;;;;;17.20;56.90;;;;;;5099592;28;19912;-71
2021/12/20 14:26:01;;;;;;;;;;;17.20;56.50;;;;;;5103716;28;19965;-71
2021/12/20 14:28:27;;;;;;;;;;;17.20;56.90;;;;;;5001481;28;20379;-71
2021/12/20 14:30:58;;;;;;;;;;;17.20;56.40;;;;;;5083129;28;19908;-71
2021/12/20 14:33:27;;;;;;;;;;;17.20;56.10;;;;;;5103551;28;19950;-71
2021/12/20 14:35:58;;;;;;;;;;;17.20;55.90;;;;;;5085181;28;19907;-71
2021/12/20 14:38:25;;;;;;;;;;;17.20;55.70;;;;;;5103424;28;19923;-71
2021/12/20 14:40:51;;;;;;;;;;;17.20;56.20;;;;;;5103291;28;19915;-70
2021/12/20 14:43:18;;;;;;;;;;;17.20;56.20;;;;;;5103207;28;19911;-71
2021/12/20 14:45:45;;;;;;;;;;;17.20;56.60;;;;;;5103227;28;19939;-70